Time;durP1;ratioP1;P1;durP2;ratioP2;P2;SDS_P1;SDS_P2;PMS_P1;PMS_P2;Temp;Humidity;BMP_temperature;BMP_pressure;BME280_temperature;BME280_humidity;BME280_pressure;Samples;Min_cycle;Max_cycle;Signal;HPM_P1;HPM_P2
2022/05/26 00:02:06;;;;;;;7.80;4.47;;;;;;;37.87;40.30;101428.84;5048419;28;20412;-76
2022/05/26 00:04:33;;;;;;;6.57;3.40;;;;;;;37.94;40.09;101433.09;5032654;28;20985;-76
2022/05/26 00:06:59;;;;;;;12.30;4.93;;;;;;;37.95;40.38;101423.88;5032716;28;21052;-76
2022/05/26 00:09:25;;;;;;;18.43;4.10;;;;;;;37.91;40.31;101426.38;5034087;28;20531;-76
2022/05/26 00:11:51;;;;;;;11.50;3.60;;;;;;;37.96;40.55;101425.50;5032706;28;20451;-75
2022/05/26 00:14:17;;;;;;;17.83;4.60;;;;;;;37.96;40.69;101418.19;5032612;28;20818;-74
2022/05/26 00:16:46;;;;;;;12.40;4.50;;;;;;;38.02;40.66;101406.16;5048836;28;20463;-76
2022/05/26 00:19:15;;;;;;;10.13;5.43;;;;;;;37.99;41.11;101400.50;5049134;28;20466;-76
2022/05/26 00:21:41;;;;;;;17.23;5.00;;;;;;;38.03;40.93;101405.06;5032400;28;20474;-75
2022/05/26 00:24:08;;;;;;;13.73;6.03;;;;;;;37.93;41.53;101397.06;5032231;28;20477;-76
2022/05/26 00:26:34;;;;;;;8.43;3.27;;;;;;;38.04;41.08;101398.53;5032433;28;20420;-74
2022/05/26 00:29:00;;;;;;;10.90;4.03;;;;;;;38.03;41.02;101393.44;5032292;28;20423;-74
2022/05/26 00:31:27;;;;;;;10.10;5.03;;;;;;;38.10;41.27;101393.84;5032023;28;20510;-77
2022/05/26 00:33:53;;;;;;;14.73;5.53;;;;;;;38.00;40.80;101391.28;5032072;28;20416;-74
2022/05/26 00:36:37;;;;;;;9.87;4.27;;;;;;;37.89;41.17;101390.66;5048662;28;20546;-74
2022/05/26 00:39:22;;;;;;;8.77;4.03;;;;;;;37.88;41.84;101379.03;5033448;28;20814;-74
2022/05/26 00:41:58;;;;;;;17.67;5.47;;;;;;;37.83;42.09;101376.38;5032014;28;20422;-74
2022/05/26 00:44:24;;;;;;;9.63;4.60;;;;;;;37.95;41.67;101365.09;5032152;28;20450;-74
2022/05/26 00:46:59;;;;;;;9.03;4.40;;;;;;;38.05;41.61;101369.53;5032053;28;20416;-74
2022/05/26 00:49:45;;;;;;;17.37;6.33;;;;;;;38.01;41.28;101360.41;5031827;28;20465;-76
2022/05/26 00:52:16;;;;;;;13.13;4.90;;;;;;;38.01;41.37;101360.41;5015135;28;20443;-75
2022/05/26 00:54:45;;;;;;;9.03;3.40;;;;;;;37.90;41.42;101354.34;5033391;28;20446;-75
2022/05/26 00:57:21;;;;;;;9.10;4.13;;;;;;;37.90;41.24;101355.16;5031636;28;20459;-74
2022/05/26 00:59:56;;;;;;;11.30;4.97;;;;;;;37.87;41.64;101347.59;5031757;28;20471;-74
2022/05/26 01:02:25;;;;;;;10.33;4.20;;;;;;;37.89;41.15;101341.91;5031565;28;20809;-74
2022/05/26 01:04:58;;;;;;;13.40;5.23;;;;;;;37.92;41.19;101331.28;5031665;28;20416;-74
2022/05/26 01:07:29;;;;;;;15.37;5.17;;;;;;;37.84;41.51;101325.75;5031578;28;20435;-74
2022/05/26 01:09:56;;;;;;;13.93;5.27;;;;;;;37.87;41.35;101325.13;5031703;28;20439;-74
2022/05/26 01:12:23;;;;;;;9.80;3.50;;;;;;;37.87;41.72;101317.81;5031261;28;20454;-75
2022/05/26 01:14:59;;;;;;;8.33;3.93;;;;;;;37.91;41.29;101309.91;5031421;28;20412;-74
2022/05/26 01:17:37;;;;;;;9.30;4.10;;;;;;;37.86;41.34;101301.88;5032994;28;20857;-74
2022/05/26 01:20:27;;;;;;;15.23;4.40;;;;;;;37.76;41.89;101293.91;5033190;28;20406;-74
2022/05/26 01:23:02;;;;;;;11.03;4.33;;;;;;;37.82;41.45;101282.72;5031447;28;20415;-81
2022/05/26 01:25:58;;;;;;;9.47;4.33;;;;;;;37.64;42.21;101278.91;5031429;28;21044;-76
2022/05/26 01:29:01;;;;;;;12.37;3.77;;;;;;;37.73;41.91;101280.94;5031422;28;20415;-76
2022/05/26 01:31:46;;;;;;;9.33;4.00;;;;;;;37.84;41.89;101290.53;5031134;28;20430;-74
2022/05/26 01:34:36;;;;;;;11.23;4.07;;;;;;;37.72;41.70;101290.97;5031180;28;20416;-74
2022/05/26 01:37:20;;;;;;;7.93;3.33;;;;;;;37.68;41.72;101286.41;5031154;28;20455;-74
2022/05/26 01:40:00;;;;;;;10.53;3.83;;;;;;;37.56;42.34;101279.53;5031273;28;20444;-74
2022/05/26 01:42:47;;;;;;;16.03;4.13;;;;;;;37.63;42.12;101271.88;5031186;28;20423;-74
2022/05/26 01:45:35;;;;;;;9.60;4.80;;;;;;;37.75;41.73;101271.44;5031065;28;20937;-74
2022/05/26 01:48:28;;;;;;;15.60;5.07;;;;;;;37.77;41.77;101268.41;5031199;28;20443;-76
2022/05/26 01:51:04;;;;;;;15.70;4.20;;;;;;;37.78;41.78;101275.44;5031214;28;20502;-76
2022/05/26 01:54:09;;;;;;;14.67;5.60;;;;;;;37.77;41.75;101279.25;5031310;28;20507;-76
2022/05/26 01:57:15;;;;;;;10.50;3.73;;;;;;;37.82;41.96;101277.31;5047442;28;20890;-76
2022/05/26 01:59:47;;;;;;;12.20;4.10;;;;;;;37.86;41.56;101277.50;4982819;28;20510;-76
2022/05/26 02:02:18;;;;;;;9.30;4.23;;;;;;;37.86;41.58;101280.19;5032526;28;20867;-76
2022/05/26 02:05:02;;;;;;;11.03;5.13;;;;;;;37.90;41.33;101279.31;5030973;28;20420;-76
2022/05/26 02:07:37;;;;;;;16.37;4.70;;;;;;;37.96;41.80;101273.84;5032613;28;20483;-76
2022/05/26 02:10:10;;;;;;;11.00;3.20;;;;;;;38.05;41.76;101278.25;5047579;28;20990;-76
2022/05/26 02:12:45;;;;;;;8.67;4.13;;;;;;;38.00;41.67;101278.38;5030847;28;20419;-74
2022/05/26 02:15:22;;;;;;;11.37;4.57;;;;;;;37.98;41.56;101277.84;5030902;28;20423;-74
2022/05/26 02:17:57;;;;;;;20.93;5.40;;;;;;;37.92;41.64;101282.53;5030859;28;20428;-76
2022/05/26 02:20:32;;;;;;;12.90;3.77;;;;;;;38.02;41.24;101273.44;5030953;28;20443;-76
2022/05/26 02:23:33;;;;;;;15.83;5.40;;;;;;;38.03;41.41;101274.25;5030873;28;20431;-76
2022/05/26 02:26:01;;;;;;;13.77;4.73;;;;;;;38.02;41.02;101273.44;5033881;28;20419;-74
2022/05/26 02:28:28;;;;;;;15.57;5.67;;;;;;;37.98;41.68;101282.44;5036220;28;20404;-74
2022/05/26 02:30:56;;;;;;;9.20;4.57;;;;;;;37.91;41.24;101278.22;5034423;28;20419;-74
2022/05/26 02:33:22;;;;;;;13.93;4.30;;;;;;;37.85;41.20;101281.31;5034465;28;20430;-74
2022/05/26 02:35:52;;;;;;;10.40;3.53;;;;;;;37.83;41.88;101280.81;5034424;28;20491;-74
2022/05/26 02:38:22;;;;;;;13.37;3.63;;;;;;;37.87;41.88;101284.50;5050951;28;20499;-74
2022/05/26 02:40:49;;;;;;;11.43;3.10;;;;;;;37.89;41.30;101299.38;5034410;28;20430;-74
2022/05/26 02:43:26;;;;;;;13.33;4.20;;;;;;;37.90;41.30;101290.16;5034242;28;20493;-74
2022/05/26 02:46:23;;;;;;;16.77;3.80;;;;;;;38.02;40.99;101292.41;5034199;28;20926;-74
2022/05/26 02:49:01;;;;;;;14.23;3.80;;;;;;;38.12;40.93;101292.25;5035983;28;20852;-74
2022/05/26 02:51:47;;;;;;;7.53;3.53;;;;;;;38.10;41.15;101296.34;5034104;28;20474;-74
2022/05/26 02:54:40;;;;;;;9.13;3.90;;;;;;;38.09;41.04;101298.25;5035613;28;20439;-74
2022/05/26 02:57:18;;;;;;;12.67;4.20;;;;;;;38.11;41.23;101298.72;5033969;28;20455;-74
2022/05/26 03:00:07;;;;;;;11.87;4.30;;;;;;;38.01;41.32;101295.41;5033705;28;20478;-74
2022/05/26 03:02:43;;;;;;;9.57;3.73;;;;;;;38.05;41.09;101299.91;5034057;28;20422;-74
2022/05/26 03:05:18;;;;;;;7.90;4.17;;;;;;;37.99;41.44;101298.41;5035596;28;20917;-74
2022/05/26 03:07:49;;;;;;;10.33;4.80;;;;;;;38.06;41.26;101293.44;5050385;28;20435;-74
2022/05/26 03:10:17;;;;;;;16.53;5.90;;;;;;;37.99;41.52;101295.69;5033972;28;20793;-74
2022/05/26 03:12:43;;;;;;;11.07;4.93;;;;;;;38.03;41.54;101294.00;5033724;28;20415;-74
2022/05/26 03:15:10;;;;;;;10.90;4.43;;;;;;;38.08;41.40;101304.75;5033782;28;20416;-74
2022/05/26 03:17:36;;;;;;;10.97;4.00;;;;;;;37.92;41.82;101306.09;5033651;28;20459;-74
2022/05/26 03:20:03;;;;;;;12.80;4.33;;;;;;;37.80;42.14;101311.97;5050198;28;20419;-74
2022/05/26 03:22:29;;;;;;;9.20;4.10;;;;;;;37.85;41.54;101308.38;5035292;28;20399;-74
2022/05/26 03:24:56;;;;;;;11.57;5.03;;;;;;;37.76;42.34;101315.56;5035087;28;20400;-74
2022/05/26 03:27:22;;;;;;;17.57;4.20;;;;;;;37.74;41.96;101310.41;5033534;28;21032;-74
2022/05/26 03:29:48;;;;;;;10.80;3.47;;;;;;;37.77;42.13;101315.25;5033800;28;20584;-74
2022/05/26 03:32:14;;;;;;;32.70;6.07;;;;;;;37.73;41.93;101316.13;5033242;28;20447;-74
2022/05/26 03:42:54;;;;;;;11.37;6.07;;;;;;;37.60;41.76;101312.25;5034587;28;20918;-74
2022/05/26 03:45:24;;;;;;;9.70;4.30;;;;;;;37.62;41.37;101313.56;5032993;28;20499;-74
2022/05/26 03:47:50;;;;;;;11.03;4.90;;;;;;;37.49;42.30;101311.59;5033175;28;20422;-74
2022/05/26 03:50:17;;;;;;;11.43;4.47;;;;;;;37.69;41.98;101320.50;5034536;28;20585;-74
2022/05/26 03:52:43;;;;;;;13.90;4.40;;;;;;;37.63;41.47;101317.91;5034776;28;20388;-74
2022/05/26 03:55:09;;;;;;;14.80;5.27;;;;;;;37.73;41.49;101326.94;5032947;28;20419;-74
2022/05/26 03:57:35;;;;;;;12.00;4.40;;;;;;;37.58;41.73;101334.22;5049451;28;20455;-74
2022/05/26 04:00:03;;;;;;;23.10;7.00;;;;;;;37.62;41.75;101329.00;5034245;28;20459;-73
2022/05/26 04:02:29;;;;;;;11.30;3.97;;;;;;;37.63;41.41;101326.03;5032690;28;20420;-74
2022/05/26 04:04:56;;;;;;;13.80;4.00;;;;;;;37.66;41.83;101321.91;5032760;28;20423;-74
2022/05/26 04:07:22;;;;;;;12.37;5.60;;;;;;;37.71;42.04;101321.84;5032788;28;20414;-74
2022/05/26 04:09:48;;;;;;;17.87;4.97;;;;;;;37.61;41.97;101320.06;5032681;28;20447;-74
2022/05/26 04:12:14;;;;;;;13.43;5.40;;;;;;;37.63;42.18;101325.22;5032622;28;20424;-74
2022/05/26 04:14:40;;;;;;;11.70;4.40;;;;;;;37.70;41.94;101331.06;5034189;28;20577;-74
2022/05/26 04:17:06;;;;;;;10.23;5.10;;;;;;;37.76;41.94;101332.59;5032412;28;20546;-74
2022/05/26 04:19:32;;;;;;;8.40;4.60;;;;;;;37.71;41.89;101340.00;5032543;28;20427;-74
2022/05/26 04:22:18;;;;;;;12.30;4.00;;;;;;;37.79;42.28;101347.44;5032464;28;20420;-74
2022/05/26 04:24:50;;;;;;;12.93;4.70;;;;;;;37.82;41.78;101341.47;5032439;28;20451;-74
2022/05/26 04:27:19;;;;;;;11.00;5.40;;;;;;;37.65;42.20;101347.38;5032596;28;20423;-74
2022/05/26 04:29:45;;;;;;;14.77;6.60;;;;;;;37.74;42.16;101353.72;5032324;28;20423;-74
2022/05/26 04:32:12;;;;;;;15.23;7.40;;;;;;;37.87;42.04;101352.22;5048849;28;20448;-74
2022/05/26 04:34:39;;;;;;;14.60;5.43;;;;;;;37.87;41.80;101361.13;5032284;28;20431;-74
2022/05/26 04:37:06;;;;;;;12.27;4.70;;;;;;;37.74;41.78;101364.56;5032101;28;20459;-74
2022/05/26 04:39:32;;;;;;;14.43;4.77;;;;;;;37.78;41.60;101370.19;5032192;28;20506;-74
2022/05/26 04:42:03;;;;;;;11.03;3.63;;;;;;;37.68;41.53;101364.94;5033756;28;20412;-76
2022/05/26 04:44:33;;;;;;;13.80;6.93;;;;;;;37.68;42.10;101373.03;5033478;28;20431;-76
2022/05/26 04:46:59;;;;;;;12.43;4.80;;;;;;;37.74;41.63;101386.22;5031429;28;20412;-76
2022/05/26 04:49:26;;;;;;;12.47;4.60;;;;;;;37.86;41.29;101383.91;5031953;28;20804;-74
2022/05/26 04:51:53;;;;;;;16.07;7.13;;;;;;;37.87;41.50;101376.59;5031905;28;20444;-74
2022/05/26 04:54:19;;;;;;;18.03;4.20;;;;;;;37.92;41.44;101388.16;5031913;28;20415;-73
2022/05/26 04:56:45;;;;;;;11.47;5.50;;;;;;;37.99;41.57;101395.91;5031731;28;20470;-73
2022/05/26 04:59:11;;;;;;;8.67;3.83;;;;;;;38.00;41.09;101392.13;5031582;28;20479;-74
2022/05/26 05:01:38;;;;;;;11.20;5.50;;;;;;;38.01;41.04;101401.06;5048266;28;20454;-73
2022/05/26 05:04:04;;;;;;;14.33;6.20;;;;;;;37.95;41.37;101396.81;5033348;28;20408;-74
2022/05/26 05:06:30;;;;;;;19.03;5.70;;;;;;;37.96;40.87;101404.63;5031701;28;20918;-74
2022/05/26 05:08:56;;;;;;;11.50;4.83;;;;;;;37.89;41.50;101405.00;5031473;28;20905;-74
2022/05/26 05:11:22;;;;;;;14.23;4.93;;;;;;;37.84;41.48;101409.69;5033206;28;20496;-73
2022/05/26 05:13:48;;;;;;;12.60;4.90;;;;;;;37.87;41.42;101412.59;5048088;28;20416;-73
2022/05/26 05:16:27;;;;;;;8.90;4.87;;;;;;;37.96;41.35;101422.78;5031499;28;20517;-74
2022/05/26 05:18:53;;;;;;;11.30;4.67;;;;;;;38.01;41.28;101417.31;5033073;28;20398;-74
2022/05/26 05:22:05;;;;;;;11.03;5.00;;;;;;;37.96;41.29;101420.88;5032779;28;20421;-74
2022/05/26 05:24:43;;;;;;;8.57;4.20;;;;;;;37.95;41.07;101421.97;5007805;28;20423;-73
2022/05/26 05:27:23;;;;;;;14.23;4.50;;;;;;;37.95;41.08;101413.06;5031370;28;20440;-73
2022/05/26 05:29:52;;;;;;;15.97;4.50;;;;;;;38.01;41.20;101420.81;5031993;28;20918;-74
2022/05/26 05:32:35;;;;;;;15.10;5.40;;;;;;;37.95;41.72;101415.75;5031279;28;20422;-74
2022/05/26 05:35:11;;;;;;;20.67;7.80;;;;;;;37.89;41.37;101415.84;5032804;28;20510;-74
2022/05/26 05:37:37;;;;;;;12.43;5.67;;;;;;;37.89;41.53;101413.13;5031307;28;20462;-74
2022/05/26 05:40:05;;;;;;;16.30;7.70;;;;;;;37.81;41.86;101415.66;5032569;28;20474;-74
2022/05/26 05:42:31;;;;;;;16.67;8.20;;;;;;;37.84;41.88;101415.09;5031216;28;20416;-74
2022/05/26 05:44:58;;;;;;;11.07;6.80;;;;;;;37.88;41.76;101419.66;5032745;28;20439;-74
2022/05/26 05:47:25;;;;;;;17.40;6.43;;;;;;;37.94;41.65;101417.66;5032779;28;20890;-74
2022/05/26 05:49:51;;;;;;;28.10;7.50;;;;;;;37.88;42.16;101416.94;5031221;28;20934;-74
2022/05/26 05:52:21;;;;;;;9.57;5.03;;;;;;;37.90;41.42;101416.63;5031398;28;20431;-74
2022/05/26 05:54:47;;;;;;;9.27;4.00;;;;;;;37.94;41.51;101414.97;5031111;28;20415;-75
2022/05/26 05:57:13;;;;;;;16.43;6.60;;;;;;;37.94;41.43;101414.97;5030889;28;20490;-74
2022/05/26 05:59:39;;;;;;;19.80;5.90;;;;;;;37.95;41.67;101423.88;5050136;28;20558;-74
2022/05/26 06:02:07;;;;;;;9.80;4.83;;;;;;;37.88;41.60;101425.06;5035080;28;20976;-74
2022/05/26 06:04:41;;;;;;;12.80;5.03;;;;;;;37.87;41.62;101423.44;5035147;28;20430;-74
2022/05/26 06:07:13;;;;;;;10.73;5.90;;;;;;;37.87;41.66;101425.34;5036491;28;20510;-74
2022/05/26 06:09:39;;;;;;;11.40;5.60;;;;;;;37.80;42.00;101433.81;5036563;28;20441;-74
2022/05/26 06:12:06;;;;;;;12.63;4.20;;;;;;;37.80;41.67;101422.16;5034768;28;20419;-74
2022/05/26 06:14:32;;;;;;;16.40;6.43;;;;;;;37.80;41.83;101425.69;5034969;28;20455;-74
2022/05/26 06:16:58;;;;;;;15.17;6.00;;;;;;;37.74;42.01;101421.41;5051351;28;20867;-74
2022/05/26 06:19:24;;;;;;;17.60;5.57;;;;;;;37.78;42.32;101424.34;5034791;28;20477;-74
2022/05/26 06:21:50;;;;;;;11.30;3.83;;;;;;;37.60;42.17;101437.56;5034695;28;20420;-74
2022/05/26 06:24:22;;;;;;;14.90;7.73;;;;;;;37.73;42.21;101440.66;5034592;28;20430;-74
2022/05/26 06:26:49;;;;;;;10.40;3.60;;;;;;;37.75;42.33;101443.88;5034732;28;20415;-74
2022/05/26 06:37:29;;;;;;;10.20;4.80;;;;;;;37.72;41.96;101466.94;5035683;28;20477;-74
2022/05/26 06:39:56;;;;;;;12.87;5.10;;;;;;;37.77;42.20;101474.19;5034399;28;20523;-74
2022/05/26 06:42:24;;;;;;;15.20;4.80;;;;;;;37.82;42.46;101472.25;5034283;28;20454;-74
2022/05/26 06:44:51;;;;;;;11.33;5.03;;;;;;;37.82;42.00;101482.28;5034384;28;20420;-73
2022/05/26 06:47:22;;;;;;;10.93;3.83;;;;;;;37.79;42.36;101488.25;5034305;28;20424;-73
2022/05/26 06:49:48;;;;;;;9.87;5.70;;;;;;;37.88;42.14;101484.63;5034246;28;20451;-75
2022/05/26 06:52:16;;;;;;;23.23;6.53;;;;;;;37.93;42.18;101483.75;5034246;28;20415;-75
2022/05/26 06:54:44;;;;;;;14.03;5.07;;;;;;;37.85;41.93;101495.22;5032091;28;20431;-74
2022/05/26 06:57:11;;;;;;;16.73;5.73;;;;;;;37.82;42.06;101490.41;5022488;28;20505;-73
2022/05/26 06:59:38;;;;;;;16.63;6.63;;;;;;;37.78;42.59;101484.72;5039410;28;20526;-73
2022/05/26 07:02:07;;;;;;;12.67;5.70;;;;;;;37.69;42.39;101489.19;5023229;28;20412;-74
2022/05/26 07:04:33;;;;;;;16.80;6.80;;;;;;;37.62;42.84;101483.28;5041386;28;20473;-74
2022/05/26 07:07:01;;;;;;;14.10;4.80;;;;;;;37.70;42.95;101479.16;5024640;28;20397;-72
2022/05/26 07:09:28;;;;;;;11.80;4.50;;;;;;;37.69;42.60;101488.34;5017553;28;20472;-74
2022/05/26 07:11:54;;;;;;;11.53;5.43;;;;;;;37.70;42.67;101482.69;5013332;28;20432;-74
2022/05/26 07:14:20;;;;;;;16.63;4.80;;;;;;;37.83;42.70;101479.28;5025961;28;20430;-74
2022/05/26 07:16:47;;;;;;;12.60;5.07;;;;;;;37.71;42.53;101481.56;5034313;28;21008;-72
2022/05/26 07:19:14;;;;;;;10.30;6.00;;;;;;;37.71;42.44;101481.56;5032920;28;20418;-73
2022/05/26 07:21:43;;;;;;;17.17;6.10;;;;;;;37.72;42.98;101479.66;5032992;28;20481;-73
2022/05/26 07:24:10;;;;;;;10.53;4.10;;;;;;;37.71;43.06;101478.06;5033066;28;20412;-73
2022/05/26 07:26:37;;;;;;;17.97;6.20;;;;;;;37.86;42.57;101488.72;5032785;28;20436;-73
2022/05/26 07:29:03;;;;;;;14.23;5.40;;;;;;;37.83;42.29;101490.13;5032670;28;20415;-74
2022/05/26 07:31:30;;;;;;;8.60;4.03;;;;;;;37.83;42.15;101494.72;5032604;28;20515;-74
2022/05/26 07:33:56;;;;;;;14.30;6.37;;;;;;;37.86;42.05;101494.13;5049343;28;20427;-76
2022/05/26 07:42:05;;;;;;;12.43;5.30;;;;;;;37.93;42.17;101513.53;5034658;28;20815;-73
2022/05/26 07:44:35;;;;;;;12.57;5.07;;;;;;;37.97;42.04;101520.00;5032585;28;21004;-75
2022/05/26 07:47:06;;;;;;;13.43;5.57;;;;;;;37.87;42.43;101518.22;5032298;28;20423;-74
2022/05/26 07:49:40;;;;;;;14.60;6.80;;;;;;;37.84;42.89;101526.13;5021597;28;20428;-73
2022/05/26 07:52:06;;;;;;;17.87;6.70;;;;;;;37.86;42.70;101515.78;5030538;28;20443;-72
2022/05/26 07:54:32;;;;;;;10.57;7.13;;;;;;;37.96;41.86;101521.09;5032374;28;20446;-72
2022/05/26 07:57:00;;;;;;;13.17;5.90;;;;;;;37.78;42.06;101524.53;5031698;28;20483;-76
2022/05/26 07:59:26;;;;;;;21.00;7.83;;;;;;;37.84;42.16;101531.53;5031671;28;20533;-73
2022/05/26 08:01:52;;;;;;;15.73;9.00;;;;;;;37.95;41.98;101532.22;5032737;28;20411;-71
2022/05/26 08:04:18;;;;;;;14.33;8.60;;;;;;;38.05;42.09;101537.50;5031103;28;20475;-71
2022/05/26 08:06:46;;;;;;;19.13;10.43;;;;;;;38.19;41.59;101538.41;5030756;28;20412;-72
2022/05/26 08:09:14;;;;;;;33.83;11.33;;;;;;;38.19;41.49;101535.69;5032317;28;20467;-72
2022/05/26 08:11:40;;;;;;;16.60;7.77;;;;;;;38.23;41.83;101544.84;5030896;28;20415;-72
2022/05/26 08:14:06;;;;;;;14.47;6.03;;;;;;;38.30;41.84;101536.38;5030416;28;20431;-72
2022/05/26 08:16:33;;;;;;;21.63;7.80;;;;;;;38.16;41.79;101538.97;5031002;28;20546;-71
2022/05/26 08:19:00;;;;;;;14.03;5.43;;;;;;;38.14;41.49;101538.47;5031113;28;20423;-71
2022/05/26 08:21:26;;;;;;;18.17;7.00;;;;;;;38.22;41.37;101537.00;5029631;28;20938;-70
2022/05/26 08:23:53;;;;;;;17.50;8.00;;;;;;;38.22;41.81;101535.09;5030797;28;20420;-73
2022/05/26 08:26:20;;;;;;;9.80;5.17;;;;;;;38.28;41.73;101523.13;5031501;28;20461;-71
2022/05/26 08:28:46;;;;;;;13.60;6.10;;;;;;;38.26;41.90;101525.31;5032266;28;20420;-70
2022/05/26 08:31:13;;;;;;;18.20;6.43;;;;;;;38.39;42.48;101515.66;5032092;28;20423;-72
2022/05/26 08:33:40;;;;;;;16.13;5.63;;;;;;;38.14;42.31;101533.06;5031660;28;20846;-70
2022/05/26 08:36:25;;;;;;;16.03;6.33;;;;;;;38.29;42.28;101526.63;5030805;28;20509;-70
2022/05/26 08:38:52;;;;;;;13.43;7.87;;;;;;;38.31;42.40;101530.69;5047393;28;20445;-70
2022/05/26 08:41:22;;;;;;;13.23;4.67;;;;;;;38.34;42.02;101532.78;5031436;28;20472;-72
2022/05/26 08:43:55;;;;;;;10.93;4.73;;;;;;;38.41;41.62;101537.84;5033685;28;20431;-79
2022/05/26 08:46:21;;;;;;;11.93;4.83;;;;;;;38.53;41.48;101545.53;5031298;28;20423;-69
2022/05/26 08:49:22;;;;;;;24.87;7.33;;;;;;;38.55;41.74;101544.16;5031280;28;20489;-70
2022/05/26 08:52:06;;;;;;;14.40;5.63;;;;;;;38.46;42.73;101545.09;5026617;28;20833;-72
2022/05/26 08:55:01;;;;;;;16.70;5.20;;;;;;;38.51;43.37;101553.97;5015502;28;20455;-69
2022/05/26 08:57:51;;;;;;;14.60;6.50;;;;;;;38.61;43.36;101550.28;5021371;28;21003;-72
2022/05/26 09:00:20;;;;;;;15.50;6.10;;;;;;;38.55;43.48;101546.88;4996225;28;20467;-70
2022/05/26 09:02:51;;;;;;;18.60;6.30;;;;;;;38.61;43.04;101536.72;5032328;28;20408;-71
2022/05/26 09:05:20;;;;;;;9.77;4.57;;;;;;;38.62;42.10;101536.44;5031234;28;20506;-70
2022/05/26 09:14:00;;;;;;;11.70;5.43;;;;;;;38.57;42.00;101549.28;4991351;28;20425;-70
2022/05/26 09:16:29;;;;;;;10.20;5.03;;;;;;;38.58;41.97;101553.59;5011899;28;20458;-70
2022/05/26 09:19:12;;;;;;;11.20;5.63;;;;;;;38.63;41.81;101551.59;5032453;28;20462;-71
2022/05/26 09:21:38;;;;;;;20.90;6.40;;;;;;;38.73;41.77;101563.41;5030673;28;20510;-70
2022/05/26 09:24:24;;;;;;;12.00;8.20;;;;;;;38.68;41.75;101561.56;5032629;28;20396;-70
2022/05/26 09:27:02;;;;;;;13.80;6.00;;;;;;;38.72;41.91;101553.69;5030876;28;20419;-71
2022/05/26 09:29:37;;;;;;;13.60;6.00;;;;;;;38.77;41.88;101559.03;5029669;28;20435;-70
2022/05/26 09:32:06;;;;;;;15.00;6.40;;;;;;;38.72;42.00;101559.91;5031220;28;20810;-70
2022/05/26 09:34:34;;;;;;;12.43;4.50;;;;;;;38.87;41.56;101561.59;5030719;28;20423;-70
2022/05/26 09:37:07;;;;;;;18.73;7.00;;;;;;;38.83;41.75;101561.34;5031303;28;20455;-70
2022/05/26 09:39:43;;;;;;;14.03;5.30;;;;;;;38.61;42.42;101564.66;5031288;28;20941;-70
2022/05/26 09:42:15;;;;;;;16.43;6.33;;;;;;;38.67;42.29;101573.50;5047909;28;20933;-71
2022/05/26 09:45:02;;;;;;;11.83;4.30;;;;;;;38.77;41.74;101567.16;5031148;28;20415;-70
2022/05/26 09:47:34;;;;;;;14.17;6.50;;;;;;;38.78;41.54;101569.56;5032760;28;20403;-70
2022/05/26 09:50:04;;;;;;;8.97;4.00;;;;;;;38.73;41.54;101561.50;5030887;28;20419;-70
2022/05/26 09:53:00;;;;;;;13.93;7.10;;;;;;;38.81;41.61;101557.34;5031115;28;20438;-70
2022/05/26 09:55:40;;;;;;;19.70;7.20;;;;;;;38.71;41.26;101563.69;5035410;28;20426;-70
2022/05/26 09:58:34;;;;;;;16.50;5.40;;;;;;;38.69;41.42;101568.59;5032097;28;20922;-70
2022/05/26 10:01:03;;;;;;;14.83;5.70;;;;;;;38.69;40.99;101571.31;5031833;28;20463;-70
2022/05/26 10:03:49;;;;;;;12.63;4.93;;;;;;;38.88;40.84;101579.47;5031916;28;20423;-69
2022/05/26 10:06:32;;;;;;;16.43;5.87;;;;;;;38.98;40.28;101573.88;5046822;28;20423;-70
2022/05/26 10:09:01;;;;;;;11.27;4.90;;;;;;;38.99;40.26;101571.97;5030548;28;20451;-70
2022/05/26 10:11:39;;;;;;;14.27;4.40;;;;;;;39.05;39.61;101573.50;5031953;28;20440;-71
2022/05/26 10:14:19;;;;;;;15.93;7.57;;;;;;;38.98;39.96;101552.19;5036448;28;20451;-70
2022/05/26 10:16:52;;;;;;;10.47;4.17;;;;;;;39.11;39.58;101562.25;5020046;28;20455;-70
2022/05/26 10:19:54;;;;;;;14.90;5.37;;;;;;;38.95;38.90;101558.19;5030872;28;20498;-71
2022/05/26 10:22:39;;;;;;;16.63;5.73;;;;;;;39.06;39.85;101565.06;5030806;28;20419;-70
2022/05/26 10:25:23;;;;;;;12.50;4.20;;;;;;;39.03;40.49;101549.34;5030814;28;20423;-69
2022/05/26 10:28:04;;;;;;;10.90;5.40;;;;;;;39.05;40.54;101549.88;5030820;28;20447;-70
2022/05/26 10:30:45;;;;;;;15.80;5.60;;;;;;;39.05;40.55;101546.38;5032365;28;20392;-70
2022/05/26 10:33:30;;;;;;;10.87;4.53;;;;;;;38.64;41.59;101541.56;5030324;28;20427;-70
2022/05/26 10:36:26;;;;;;;12.03;5.30;;;;;;;38.78;41.74;101547.06;5030722;28;20411;-70
2022/05/26 10:39:33;;;;;;;17.40;4.80;;;;;;;38.63;42.15;101543.47;5029951;28;20419;-69
2022/05/26 10:42:08;;;;;;;19.70;5.80;;;;;;;38.78;41.79;101549.78;5047335;28;20420;-69
2022/05/26 10:45:07;;;;;;;25.60;8.70;;;;;;;38.61;41.79;101551.09;5029985;28;20946;-70
2022/05/26 10:47:36;;;;;;;31.20;7.17;;;;;;;38.62;42.00;101555.44;5033306;28;20408;-70
2022/05/26 10:50:09;;;;;;;15.30;5.10;;;;;;;38.59;41.55;101560.63;5034197;28;20449;-70
2022/05/26 10:52:44;;;;;;;14.23;6.70;;;;;;;38.69;41.87;101544.22;5033840;28;20424;-71
2022/05/26 10:55:18;;;;;;;13.20;6.10;;;;;;;38.71;42.60;101544.72;5050353;28;20419;-70
2022/05/26 10:57:48;;;;;;;9.47;6.03;;;;;;;38.53;42.06;101542.81;5033991;28;20512;-71
2022/05/26 11:00:21;;;;;;;18.97;6.77;;;;;;;38.46;42.66;101545.91;5032106;28;20459;-70
2022/05/26 11:03:14;;;;;;;13.90;5.03;;;;;;;38.57;42.36;101541.94;5034267;28;20423;-69
2022/05/26 11:05:53;;;;;;;13.50;5.37;;;;;;;38.42;42.42;101547.56;5033532;28;20965;-70
2022/05/26 11:08:36;;;;;;;9.93;5.53;;;;;;;38.36;43.67;101548.75;5033909;28;20506;-69
2022/05/26 11:11:32;;;;;;;10.83;5.60;;;;;;;38.19;44.37;101541.13;5032916;28;20783;-69
2022/05/26 11:14:04;;;;;;;18.20;7.00;;;;;;;38.39;44.27;101532.72;5033543;28;20988;-72
2022/05/26 11:19:38;;;;;;;18.33;5.83;;;;;;;38.45;44.10;101533.44;5034943;28;20446;-70
2022/05/26 11:22:06;;;;;;;13.50;5.90;;;;;;;38.57;44.22;101528.38;5035298;28;20412;-69
2022/05/26 11:24:33;;;;;;;20.83;6.97;;;;;;;38.49;43.98;101529.06;5033331;28;20458;-70
2022/05/26 11:27:44;;;;;;;19.10;9.20;;;;;;;38.53;43.63;101515.72;5035248;28;20442;-70
2022/05/26 11:36:38;;;;;;;17.97;6.30;;;;;;;38.30;44.40;101503.84;5029178;28;20532;-73
2022/05/26 11:39:16;;;;;;;17.37;5.30;;;;;;;38.21;44.01;101495.56;5032814;28;20451;-70
2022/05/26 11:41:57;;;;;;;21.43;6.50;;;;;;;38.20;43.54;101496.66;5013386;28;20428;-70
2022/05/26 11:44:38;;;;;;;15.70;5.50;;;;;;;38.24;43.44;101496.88;5049494;28;20523;-71
2022/05/26 11:47:30;;;;;;;18.27;6.13;;;;;;;38.09;43.53;101484.34;5032112;28;20460;-71
2022/05/26 11:49:56;;;;;;;20.40;5.60;;;;;;;38.23;43.98;101481.72;5033398;28;20416;-73
2022/05/26 11:52:27;;;;;;;20.10;5.60;;;;;;;38.26;43.72;101481.97;5034385;28;20443;-72
2022/05/26 11:54:59;;;;;;;20.67;5.13;;;;;;;37.96;43.56;101483.19;5031455;28;20427;-73
2022/05/26 11:57:43;;;;;;;12.10;4.60;;;;;;;38.31;43.60;101475.69;5034023;28;20474;-72
2022/05/26 12:00:15;;;;;;;11.23;5.90;;;;;;;38.28;43.24;101468.13;5032769;28;20479;-70
2022/05/26 12:02:45;;;;;;;10.90;5.27;;;;;;;38.34;43.13;101456.09;5032310;28;20480;-71
2022/05/26 12:05:48;;;;;;;15.93;5.63;;;;;;;38.29;43.17;101443.44;5033311;28;20408;-71
2022/05/26 12:08:28;;;;;;;11.77;5.03;;;;;;;38.28;43.03;101446.44;4951167;28;20942;-73
2022/05/26 12:11:01;;;;;;;16.23;5.03;;;;;;;38.25;42.74;101436.19;5021412;28;20427;-72
2022/05/26 12:13:32;;;;;;;18.63;7.33;;;;;;;38.26;43.48;101437.78;5032696;28;20424;-71
2022/05/26 12:16:22;;;;;;;16.67;5.40;;;;;;;38.51;43.04;101425.75;5032305;28;20876;-73
2022/05/26 12:19:01;;;;;;;17.37;6.00;;;;;;;38.46;42.54;101429.34;5031594;28;20432;-71
2022/05/26 12:21:27;;;;;;;12.43;4.20;;;;;;;38.39;42.49;101427.03;5031683;28;20494;-71
2022/05/26 12:23:58;;;;;;;13.50;6.03;;;;;;;38.54;42.55;101415.09;5031824;28;20447;-71
2022/05/26 12:26:51;;;;;;;18.10;5.47;;;;;;;38.52;42.44;101403.75;5031282;28;20450;-71